createdAt,value
2019-04-26T00:00:53.264Z,59.56
2019-04-26T00:03:28.086Z,59.58
2019-04-26T00:05:58.011Z,59.55
2019-04-26T00:08:27.327Z,59.56
2019-04-26T00:11:18.440Z,59.47
2019-04-26T00:14:05.557Z,59.48
2019-04-26T00:16:50.060Z,59.33
2019-04-26T00:19:19.312Z,59.21
2019-04-26T00:21:48.947Z,59.25
2019-04-26T00:24:19.351Z,59.29
2019-04-26T00:26:48.811Z,59.33
2019-04-26T00:29:18.928Z,59.35
2019-04-26T00:31:48.435Z,59.38
2019-04-26T00:34:17.801Z,59.39
2019-04-26T00:36:47.153Z,59.42
2019-04-26T00:39:16.431Z,59.52
2019-04-26T00:41:46.674Z,59.53
2019-04-26T00:44:16.593Z,59.58
2019-04-26T00:46:48.389Z,59.71
2019-04-26T00:49:19.219Z,59.77
2019-04-26T00:51:50.291Z,59.83
2019-04-26T00:54:20.759Z,59.83
2019-04-26T00:56:50.390Z,59.88
2019-04-26T00:59:20.536Z,59.91
2019-04-26T01:01:53.762Z,60.01
2019-04-26T01:04:23.107Z,59.95
2019-04-26T01:06:54.521Z,59.88
2019-04-26T01:09:23.959Z,59.88
2019-04-26T01:11:53.211Z,59.92
2019-04-26T01:14:22.455Z,59.99
2019-04-26T01:16:51.747Z,60.02
2019-04-26T01:19:24.574Z,60.10
2019-04-26T01:21:58.046Z,60.12
2019-04-26T01:24:30.244Z,60.12
2019-04-26T01:27:01.777Z,60.11
2019-04-26T01:29:32.508Z,60.28
2019-04-26T01:32:09.553Z,60.34
2019-04-26T01:34:41.541Z,60.46
2019-04-26T01:37:12.097Z,60.48
2019-04-26T01:39:46.270Z,60.55
2019-04-26T01:42:33.360Z,60.62
2019-04-26T01:45:16.300Z,60.70
2019-04-26T01:47:47.344Z,60.76
2019-04-26T01:50:17.277Z,60.84
2019-04-26T01:52:47.881Z,61.01
2019-04-26T01:55:18.042Z,61.13
2019-04-26T01:57:47.591Z,61.15
2019-04-26T02:00:39.245Z,61.22
2019-04-26T02:03:18.868Z,61.25
2019-04-26T02:05:48.779Z,61.11
2019-04-26T02:08:19.076Z,61.11
2019-04-26T02:10:48.484Z,61.15
2019-04-26T02:13:17.884Z,61.17
2019-04-26T02:15:47.130Z,61.12
2019-04-26T02:18:16.387Z,61.07
2019-04-26T02:21:10.824Z,61.11
2019-04-26T02:23:46.447Z,61.17
2019-04-26T02:26:34.911Z,61.12
2019-04-26T02:29:07.462Z,61.14
2019-04-26T02:31:38.373Z,61.04
2019-04-26T02:34:08.164Z,61.10
2019-04-26T02:36:56.178Z,61.12
2019-04-26T02:39:21.562Z,61.20
2019-04-26T02:41:54.680Z,61.31
2019-04-26T02:44:31.327Z,61.34
2019-04-26T02:47:50.605Z,61.40
2019-04-26T02:50:31.165Z,61.43
2019-04-26T02:53:08.573Z,61.27
2019-04-26T02:56:12.997Z,61.31
2019-04-26T02:59:13.070Z,61.32
2019-04-26T03:01:42.868Z,61.16
2019-04-26T03:04:12.623Z,61.20
2019-04-26T03:07:01.907Z,61.26
2019-04-26T03:09:17.003Z,61.39
2019-04-26T03:11:49.739Z,61.39
2019-04-26T03:14:38.501Z,61.38
2019-04-26T03:17:24.016Z,61.39
2019-04-26T03:19:59.503Z,61.34
2019-04-26T03:22:51.999Z,61.44
2019-04-26T03:25:59.493Z,61.51
2019-04-26T03:28:46.751Z,61.50
2019-04-26T03:31:26.508Z,61.43
2019-04-26T03:34:13.621Z,61.45
2019-04-26T03:37:28.289Z,61.56
2019-04-26T03:40:13.988Z,61.57
2019-04-26T03:43:06.495Z,61.46
2019-04-26T03:45:51.208Z,61.53
2019-04-26T03:48:35.919Z,61.45
2019-04-26T03:51:13.566Z,61.53
2019-04-26T03:53:56.214Z,61.67
2019-04-26T03:57:03.252Z,61.69
2019-04-26T03:59:53.994Z,61.74
2019-04-26T04:02:59.060Z,61.63
2019-04-26T04:05:44.172Z,61.60
2019-04-26T04:08:20.463Z,61.50
2019-04-26T04:11:01.020Z,61.58
2019-04-26T04:13:58.699Z,61.66
2019-04-26T04:17:01.174Z,61.82
2019-04-26T04:20:14.740Z,61.88
2019-04-26T04:22:49.401Z,61.89
2019-04-26T04:25:29.678Z,61.83
2019-04-26T04:28:07.131Z,61.91
2019-04-26T04:31:05.211Z,61.98
2019-04-26T04:34:07.528Z,62.03
2019-04-26T04:36:48.881Z,62.00
2019-04-26T04:39:40.873Z,61.96
2019-04-26T04:42:29.693Z,62.03
2019-04-26T04:45:26.662Z,61.97
2019-04-26T04:48:21.437Z,61.92
2019-04-26T04:51:01.722Z,61.87
2019-04-26T04:53:53.497Z,61.87
2019-04-26T04:56:41.520Z,62.00
2019-04-26T04:59:14.566Z,62.03
2019-04-26T05:02:31.777Z,62.15
2019-04-26T05:05:40.091Z,62.19
2019-04-26T05:08:23.801Z,62.07
2019-04-26T05:11:04.227Z,61.98
2019-04-26T05:13:45.238Z,62.01
2019-04-26T05:16:46.536Z,62.03
2019-04-26T05:19:48.604Z,61.92
2019-04-26T05:23:07.660Z,61.71
2019-04-26T05:26:29.077Z,61.54
2019-04-26T05:29:39.666Z,61.26
2019-04-26T05:32:28.966Z,61.05
2019-04-26T05:35:12.177Z,60.93
2019-04-26T05:38:18.554Z,60.74
2019-04-26T05:41:11.129Z,60.64
2019-04-26T05:43:58.029Z,60.35
2019-04-26T05:47:23.338Z,60.16
2019-04-26T05:50:25.589Z,59.90
2019-04-26T05:54:01.391Z,59.55
2019-04-26T05:56:52.720Z,59.41
2019-04-26T06:00:50.547Z,59.21
2019-04-26T06:04:04.225Z,59.23
2019-04-26T06:06:44.782Z,59.01
2019-04-26T06:10:05.115Z,58.99
2019-04-26T06:12:46.611Z,58.92
2019-04-26T06:15:44.451Z,58.82
2019-04-26T06:18:44.797Z,58.79
2019-04-26T06:21:44.571Z,58.73
2019-04-26T06:24:26.310Z,58.62
2019-04-26T06:27:33.401Z,58.39
2019-04-26T06:30:15.041Z,58.27
2019-04-26T06:33:00.379Z,58.06
2019-04-26T06:35:27.051Z,57.95
2019-04-26T06:38:25.477Z,57.68
2019-04-26T06:41:40.002Z,57.46
2019-04-26T06:44:14.892Z,57.26
2019-04-26T06:47:07.067Z,57.00
2019-04-26T06:50:18.075Z,56.70
2019-04-26T06:52:56.665Z,56.37
2019-04-26T06:55:39.461Z,55.89
2019-04-26T06:58:46.134Z,55.50
2019-04-26T07:01:53.106Z,55.08
2019-04-26T07:05:01.075Z,55.02
2019-04-26T07:08:06.876Z,54.77
2019-04-26T07:11:12.071Z,54.53
2019-04-26T07:14:22.250Z,54.11
2019-04-26T07:16:58.211Z,53.76
2019-04-26T07:20:30.281Z,53.45
2019-04-26T07:23:34.474Z,53.11
2019-04-26T07:26:39.539Z,52.80
2019-04-26T07:29:46.011Z,52.35
2019-04-26T07:32:33.198Z,52.21
2019-04-26T07:35:19.249Z,52.08
2019-04-26T07:38:52.477Z,52.03
2019-04-26T07:41:55.883Z,52.19
2019-04-26T07:44:46.130Z,52.16
2019-04-26T07:47:42.706Z,52.29
2019-04-26T07:50:38.228Z,51.08
2019-04-26T07:53:45.179Z,49.81
2019-04-26T07:56:58.354Z,48.31
2019-04-26T07:59:52.451Z,47.45
2019-04-26T08:02:56.497Z,46.94
2019-04-26T08:05:38.833Z,45.82
2019-04-26T08:08:10.884Z,44.65
2019-04-26T08:10:42.958Z,44.06
2019-04-26T08:13:16.369Z,43.67
2019-04-26T08:16:27.014Z,43.73
2019-04-26T08:19:01.938Z,43.79
2019-04-26T08:21:37.008Z,44.24
2019-04-26T08:24:27.884Z,44.39
2019-04-26T08:27:22.817Z,44.43
2019-04-26T08:29:49.129Z,43.98
2019-04-26T08:32:23.153Z,42.99
2019-04-26T08:35:09.999Z,42.08
2019-04-26T08:37:59.296Z,40.85
2019-04-26T08:40:31.414Z,40.65
2019-04-26T08:43:20.506Z,40.62
2019-04-26T08:46:16.331Z,40.88
2019-04-26T08:48:53.076Z,41.51
2019-04-26T08:51:24.942Z,41.49
2019-04-26T08:53:58.180Z,40.67
2019-04-26T08:56:33.350Z,39.95
2019-04-26T08:59:09.755Z,39.25
2019-04-26T09:01:50.080Z,39.02
2019-04-26T09:04:28.650Z,39.09
2019-04-26T09:07:09.154Z,39.30
2019-04-26T09:09:41.302Z,39.74
2019-04-26T09:12:22.924Z,40.03
2019-04-26T09:14:51.669Z,40.38
2019-04-26T09:17:20.975Z,40.84
2019-04-26T09:19:50.253Z,40.12
2019-04-26T09:22:27.641Z,40.12
2019-04-26T09:25:02.020Z,40.02
2019-04-26T09:28:02.970Z,40.45
2019-04-26T09:30:51.519Z,40.60
2019-04-26T09:33:26.981Z,40.77
2019-04-26T09:35:56.264Z,40.97
2019-04-26T09:38:25.379Z,41.09
2019-04-26T09:40:56.203Z,40.62
2019-04-26T09:43:31.981Z,39.94
2019-04-26T09:46:07.774Z,38.79
2019-04-26T09:48:59.051Z,38.39
2019-04-26T09:51:28.512Z,37.74
2019-04-26T09:53:57.735Z,37.59
2019-04-26T09:56:27.031Z,37.01
2019-04-26T09:58:56.383Z,36.28
2019-04-26T10:01:26.067Z,35.67
2019-04-26T10:03:55.343Z,35.32
2019-04-26T10:06:26.173Z,34.44
2019-04-26T10:08:55.676Z,34.10
2019-04-26T10:11:27.456Z,34.17
2019-04-26T10:14:06.283Z,34.30
2019-04-26T10:16:57.579Z,34.79
2019-04-26T10:19:54.578Z,35.58
2019-04-26T10:22:25.899Z,35.79
2019-04-26T10:24:55.154Z,36.24
2019-04-26T10:27:24.448Z,35.67
2019-04-26T10:29:56.561Z,35.43
2019-04-26T10:32:26.389Z,34.28
2019-04-26T10:34:56.104Z,33.68
2019-04-26T10:37:25.502Z,33.04
2019-04-26T10:39:54.735Z,32.57
2019-04-26T10:42:24.501Z,32.09
2019-04-26T10:44:53.756Z,31.64
2019-04-26T10:47:23.108Z,31.26
2019-04-26T10:49:54.429Z,31.28
2019-04-26T10:52:39.093Z,30.86
2019-04-26T10:55:26.985Z,30.65
2019-04-26T10:57:59.577Z,30.98
2019-04-26T11:00:34.749Z,31.19
2019-04-26T11:03:05.981Z,31.43
2019-04-26T11:05:35.192Z,31.17
2019-04-26T11:08:04.639Z,31.48
2019-04-26T11:10:47.668Z,30.79
2019-04-26T11:13:06.503Z,30.77
2019-04-26T11:15:35.894Z,30.48
2019-04-26T11:18:05.868Z,30.41
2019-04-26T11:20:35.122Z,30.42
2019-04-26T11:23:04.421Z,30.50
2019-04-26T11:25:33.720Z,30.48
2019-04-26T11:28:02.955Z,30.62
2019-04-26T11:30:32.254Z,30.32
2019-04-26T11:33:01.595Z,30.22
2019-04-26T11:35:33.278Z,30.21
2019-04-26T11:38:02.009Z,30.08
2019-04-26T11:40:31.271Z,30.19
2019-04-26T11:43:00.529Z,30.18
2019-04-26T11:45:29.888Z,29.83
2019-04-26T11:47:59.962Z,29.82
2019-04-26T11:50:29.212Z,29.32
2019-04-26T11:52:58.494Z,28.93
2019-04-26T11:55:29.956Z,28.93
2019-04-26T11:57:58.743Z,28.73
2019-04-26T12:00:32.933Z,28.76
2019-04-26T12:03:02.194Z,28.95
2019-04-26T12:05:58.203Z,28.92
2019-04-26T12:08:56.707Z,28.93
2019-04-26T12:11:32.522Z,29.28
2019-04-26T12:13:59.539Z,29.18
2019-04-26T12:16:27.861Z,28.97
2019-04-26T12:18:57.156Z,28.51
2019-04-26T12:21:26.405Z,28.00
2019-04-26T12:23:56.426Z,27.55
2019-04-26T12:26:27.355Z,27.13
2019-04-26T12:28:57.488Z,26.85
2019-04-26T12:31:28.968Z,26.73
2019-04-26T12:33:58.584Z,26.22
2019-04-26T12:36:28.361Z,26.00
2019-04-26T12:38:58.150Z,25.70
2019-04-26T12:41:39.782Z,25.58
2019-04-26T12:44:03.256Z,25.27
2019-04-26T12:46:41.867Z,25.16
2019-04-26T12:49:11.691Z,24.98
2019-04-26T12:51:42.908Z,25.05
2019-04-26T12:54:11.940Z,24.83
2019-04-26T12:56:41.256Z,24.39
2019-04-26T12:59:10.517Z,24.20
2019-04-26T13:01:42.700Z,23.66
2019-04-26T13:04:10.971Z,23.27
2019-04-26T13:06:48.225Z,22.89
2019-04-26T13:09:26.622Z,22.47
2019-04-26T13:12:07.868Z,22.40
2019-04-26T13:15:13.193Z,22.08
2019-04-26T13:17:45.255Z,21.88
2019-04-26T13:20:14.422Z,22.14
2019-04-26T13:22:46.163Z,22.13
2019-04-26T13:25:24.732Z,22.09
2019-04-26T13:27:46.702Z,21.99
2019-04-26T13:30:16.004Z,22.15
2019-04-26T13:32:49.316Z,22.22
2019-04-26T13:35:16.524Z,22.27
2019-04-26T13:37:45.909Z,21.73
2019-04-26T13:40:15.211Z,21.72
2019-04-26T13:42:47.500Z,21.90
2019-04-26T13:45:23.899Z,21.78
2019-04-26T13:48:14.924Z,21.85
2019-04-26T13:50:49.429Z,21.79
2019-04-26T13:53:18.674Z,21.84
2019-04-26T13:55:47.938Z,21.60
2019-04-26T13:58:20.798Z,21.44
2019-04-26T14:00:48.198Z,21.05
2019-04-26T14:03:17.471Z,20.91
2019-04-26T14:05:47.185Z,20.80
2019-04-26T14:08:17.738Z,21.12
2019-04-26T14:10:49.773Z,21.43
2019-04-26T14:13:20.714Z,22.14
2019-04-26T14:15:51.883Z,22.63
2019-04-26T14:18:20.233Z,22.23
2019-04-26T14:20:49.682Z,22.25
2019-04-26T14:23:33.756Z,22.28
2019-04-26T14:26:08.904Z,21.64
2019-04-26T14:28:38.158Z,21.28
2019-04-26T14:31:07.497Z,21.00
2019-04-26T14:33:36.921Z,21.35
2019-04-26T14:36:17.092Z,21.45
2019-04-26T14:38:40.043Z,21.99
2019-04-26T14:41:08.845Z,22.34
2019-04-26T14:43:41.000Z,22.59
2019-04-26T14:46:10.388Z,22.61
2019-04-26T14:48:44.118Z,22.40
2019-04-26T14:51:12.293Z,22.37
2019-04-26T14:53:42.879Z,22.55
2019-04-26T14:56:12.191Z,22.80
2019-04-26T14:58:42.309Z,22.80
2019-04-26T15:01:17.360Z,22.60
2019-04-26T15:04:08.679Z,22.72
2019-04-26T15:06:42.369Z,23.49
2019-04-26T15:09:19.884Z,24.13
2019-04-26T15:11:53.485Z,24.00
2019-04-26T15:14:19.423Z,23.87
2019-04-26T15:16:46.060Z,23.63
2019-04-26T15:19:15.461Z,23.20
2019-04-26T15:21:44.843Z,22.98
2019-04-26T15:24:14.288Z,23.08
2019-04-26T15:26:43.517Z,23.13
2019-04-26T15:29:12.815Z,23.13
2019-04-26T15:31:43.451Z,23.18
2019-04-26T15:34:12.728Z,23.12
2019-04-26T15:36:43.451Z,23.45
2019-04-26T15:39:23.217Z,22.81
2019-04-26T15:42:15.003Z,23.18
2019-04-26T15:44:53.419Z,23.33
2019-04-26T15:47:42.222Z,23.35
2019-04-26T15:50:33.582Z,23.35
2019-04-26T15:53:06.607Z,23.56
2019-04-26T15:55:39.674Z,23.62
2019-04-26T15:58:08.329Z,23.77
2019-04-26T16:00:36.184Z,23.99
2019-04-26T16:03:07.444Z,24.19
2019-04-26T16:05:36.855Z,24.64
2019-04-26T16:08:06.172Z,25.23
2019-04-26T16:10:38.395Z,25.27
2019-04-26T16:13:18.062Z,25.29
2019-04-26T16:15:37.450Z,25.10
2019-04-26T16:18:10.704Z,25.35
2019-04-26T16:20:42.230Z,25.49
2019-04-26T16:23:09.172Z,25.62
2019-04-26T16:25:39.284Z,26.05
2019-04-26T16:28:30.846Z,26.48
2019-04-26T16:31:24.596Z,26.80
2019-04-26T16:33:57.228Z,27.08
2019-04-26T16:36:26.465Z,27.46
2019-04-26T16:38:57.959Z,28.12
2019-04-26T16:41:27.497Z,28.53
2019-04-26T16:43:57.878Z,28.80
2019-04-26T16:46:27.135Z,28.93
2019-04-26T16:49:03.225Z,29.03
2019-04-26T16:51:27.434Z,29.20
2019-04-26T16:54:06.668Z,29.38
2019-04-26T16:56:28.351Z,29.66
2019-04-26T16:58:57.922Z,30.01
2019-04-26T17:01:27.177Z,30.23
2019-04-26T17:03:56.482Z,30.66
2019-04-26T17:06:25.734Z,31.11
2019-04-26T17:09:01.171Z,31.44
2019-04-26T17:11:25.986Z,31.86
2019-04-26T17:13:56.990Z,32.24
2019-04-26T17:16:29.643Z,32.80
2019-04-26T17:18:59.690Z,33.24
2019-04-26T17:21:30.732Z,33.78
2019-04-26T17:24:12.271Z,34.41
2019-04-26T17:26:48.600Z,34.87
2019-04-26T17:29:17.971Z,35.07
2019-04-26T17:31:47.214Z,35.62
2019-04-26T17:34:16.460Z,36.08
2019-04-26T17:36:46.508Z,36.58
2019-04-26T17:39:18.284Z,36.85
2019-04-26T17:41:50.854Z,37.13
2019-04-26T17:44:20.600Z,37.47
2019-04-26T17:46:56.373Z,37.81
2019-04-26T17:49:26.978Z,38.01
2019-04-26T17:51:57.984Z,38.29
2019-04-26T17:54:41.611Z,38.47
2019-04-26T17:56:53.843Z,38.75
2019-04-26T17:59:33.613Z,39.00
2019-04-26T18:02:00.978Z,39.26
2019-04-26T18:04:34.543Z,39.46
2019-04-26T18:07:03.794Z,39.75
2019-04-26T18:09:41.378Z,40.13
2019-04-26T18:12:00.032Z,40.37
2019-04-26T18:14:30.677Z,40.49
2019-04-26T18:17:06.623Z,40.66
2019-04-26T18:19:43.090Z,41.00
2019-04-26T18:22:36.181Z,41.28
2019-04-26T18:25:10.767Z,41.63
2019-04-26T18:27:38.620Z,41.84
2019-04-26T18:30:12.258Z,42.65
2019-04-26T18:32:45.710Z,42.65
2019-04-26T18:35:15.201Z,42.78
2019-04-26T18:37:42.734Z,43.06
2019-04-26T18:40:12.755Z,43.40
2019-04-26T18:42:43.399Z,43.53
2019-04-26T18:45:13.929Z,43.74
2019-04-26T18:47:45.331Z,44.06
2019-04-26T18:50:15.568Z,44.42
2019-04-26T18:53:03.966Z,44.70
2019-04-26T18:55:34.539Z,44.92
2019-04-26T18:58:05.859Z,45.15
2019-04-26T19:00:39.895Z,45.44
2019-04-26T19:03:09.233Z,45.59
2019-04-26T19:05:38.698Z,45.85
2019-04-26T19:08:09.853Z,46.15
2019-04-26T19:10:39.167Z,46.41
2019-04-26T19:13:32.108Z,46.74
2019-04-26T19:16:10.518Z,47.08
2019-04-26T19:18:52.708Z,47.22
2019-04-26T19:21:39.085Z,47.52
2019-04-26T19:24:11.644Z,47.69
2019-04-26T19:26:37.482Z,47.91
2019-04-26T19:29:16.316Z,48.21
2019-04-26T19:31:37.757Z,48.42
2019-04-26T19:34:07.015Z,48.65
2019-04-26T19:36:36.281Z,48.76
2019-04-26T19:39:08.051Z,48.90
2019-04-26T19:41:37.486Z,49.08
2019-04-26T19:44:06.714Z,49.21
2019-04-26T19:47:02.157Z,49.48
2019-04-26T19:49:46.832Z,49.67
2019-04-26T19:52:47.418Z,49.63
2019-04-26T19:55:51.453Z,49.74
2019-04-26T19:58:23.415Z,49.85
2019-04-26T20:00:52.876Z,49.95
2019-04-26T20:03:25.371Z,50.17
2019-04-26T20:05:54.751Z,50.56
2019-04-26T20:08:24.011Z,50.85
2019-04-26T20:10:53.250Z,51.10
2019-04-26T20:13:22.526Z,51.26
2019-04-26T20:15:57.084Z,51.48
2019-04-26T20:18:23.951Z,51.49
2019-04-26T20:20:53.244Z,51.66
2019-04-26T20:23:22.912Z,51.99
2019-04-26T20:25:53.048Z,52.33
2019-04-26T20:28:22.999Z,52.40
2019-04-26T20:31:05.942Z,52.53
2019-04-26T20:33:31.564Z,52.61
2019-04-26T20:36:04.682Z,52.70
2019-04-26T20:38:35.873Z,52.86
2019-04-26T20:41:03.728Z,52.98
2019-04-26T20:43:36.784Z,53.11
2019-04-26T20:46:14.149Z,53.29
2019-04-26T20:48:35.887Z,53.53
2019-04-26T20:51:06.589Z,53.67
2019-04-26T20:53:40.956Z,53.78
2019-04-26T20:56:09.450Z,53.78
2019-04-26T20:58:45.433Z,53.96
2019-04-26T21:01:12.479Z,54.12
2019-04-26T21:03:44.605Z,54.30
2019-04-26T21:06:12.210Z,54.34
2019-04-26T21:08:42.335Z,54.54
2019-04-26T21:11:13.732Z,54.71
2019-04-26T21:13:43.134Z,54.81
2019-04-26T21:16:15.215Z,54.84
2019-04-26T21:18:44.415Z,54.90
2019-04-26T21:21:16.002Z,54.95
2019-04-26T21:23:47.309Z,55.08
2019-04-26T21:26:27.603Z,55.28
2019-04-26T21:29:20.474Z,55.59
2019-04-26T21:32:23.717Z,55.66
2019-04-26T21:34:53.962Z,55.76
2019-04-26T21:37:32.336Z,55.81
2019-04-26T21:40:26.183Z,56.12
2019-04-26T21:42:59.299Z,56.25
2019-04-26T21:45:29.715Z,56.32
2019-04-26T21:47:56.739Z,56.73
2019-04-26T21:50:29.126Z,57.08
2019-04-26T21:52:58.563Z,57.24
2019-04-26T21:55:35.335Z,57.41
2019-04-26T21:58:02.740Z,57.69
2019-04-26T22:00:57.131Z,57.96
2019-04-26T22:03:26.479Z,58.16
2019-04-26T22:05:55.725Z,58.11
2019-04-26T22:08:28.719Z,58.45
2019-04-26T22:10:58.057Z,58.56
2019-04-26T22:13:37.218Z,58.87
2019-04-26T22:16:30.675Z,59.13
2019-04-26T22:19:03.849Z,59.33
2019-04-26T22:21:43.530Z,59.34
2019-04-26T22:24:18.268Z,59.35
2019-04-26T22:26:48.196Z,59.54
2019-04-26T22:29:17.635Z,59.82
2019-04-26T22:31:46.933Z,59.98
2019-04-26T22:34:16.171Z,60.16
2019-04-26T22:36:45.434Z,60.20
2019-04-26T22:39:19.259Z,60.46
2019-04-26T22:41:48.510Z,60.72
2019-04-26T22:44:38.303Z,60.88
2019-04-26T22:47:40.875Z,60.96
2019-04-26T22:50:06.896Z,60.92
2019-04-26T22:52:36.173Z,60.91
2019-04-26T22:55:07.963Z,60.93
2019-04-26T22:57:37.253Z,61.07
2019-04-26T23:00:07.413Z,61.16
2019-04-26T23:02:36.739Z,61.29
2019-04-26T23:05:06.698Z,61.25
2019-04-26T23:07:35.928Z,61.35
2019-04-26T23:10:08.407Z,61.39
2019-04-26T23:13:14.938Z,61.54
2019-04-26T23:16:18.487Z,61.60
2019-04-26T23:18:58.790Z,61.37
2019-04-26T23:21:30.928Z,61.32
2019-04-26T23:24:00.195Z,61.32
2019-04-26T23:26:29.458Z,61.48
2019-04-26T23:28:58.718Z,61.63
2019-04-26T23:31:27.961Z,61.80
2019-04-26T23:33:57.271Z,61.93
2019-04-26T23:36:26.509Z,62.01
2019-04-26T23:38:55.754Z,62.13
2019-04-26T23:41:25.098Z,62.16
2019-04-26T23:44:02.504Z,62.14
2019-04-26T23:46:25.895Z,62.29
2019-04-26T23:48:55.611Z,62.36
2019-04-26T23:51:26.202Z,62.37
2019-04-26T23:53:57.760Z,62.45
2019-04-26T23:56:26.817Z,62.44
2019-04-26T23:58:56.104Z,62.45
